sensor_id;sensor_type;location;lat;lon;timestamp;temperature;humidity
18446;DHT22;9352;50.888;4.466;2023-10-19T00:00:32;16.00;99.90
18446;DHT22;9352;50.888;4.466;2023-10-19T00:02:59;16.00;99.90
18446;DHT22;9352;50.888;4.466;2023-10-19T00:05:28;16.00;99.90
18446;DHT22;9352;50.888;4.466;2023-10-19T00:07:56;16.00;99.90
18446;DHT22;9352;50.888;4.466;2023-10-19T00:10:25;16.00;99.90
18446;DHT22;9352;50.888;4.466;2023-10-19T00:12:54;16.00;99.90
18446;DHT22;9352;50.888;4.466;2023-10-19T00:15:26;16.00;99.90
18446;DHT22;9352;50.888;4.466;2023-10-19T00:17:58;16.00;99.90
18446;DHT22;9352;50.888;4.466;2023-10-19T00:20:34;16.00;99.90
18446;DHT22;9352;50.888;4.466;2023-10-19T00:23:15;16.00;99.90
18446;DHT22;9352;50.888;4.466;2023-10-19T00:25:44;16.10;99.90
18446;DHT22;9352;50.888;4.466;2023-10-19T00:28:10;16.00;99.90
18446;DHT22;9352;50.888;4.466;2023-10-19T00:30:40;16.00;99.90
18446;DHT22;9352;50.888;4.466;2023-10-19T00:33:09;16.00;99.90
18446;DHT22;9352;50.888;4.466;2023-10-19T00:35:42;16.00;99.90
18446;DHT22;9352;50.888;4.466;2023-10-19T00:38:23;16.10;99.90
18446;DHT22;9352;50.888;4.466;2023-10-19T00:41:07;16.10;99.90
18446;DHT22;9352;50.888;4.466;2023-10-19T00:43:38;16.00;99.90
18446;DHT22;9352;50.888;4.466;2023-10-19T00:46:08;16.10;99.90
18446;DHT22;9352;50.888;4.466;2023-10-19T00:48:43;16.00;99.90
18446;DHT22;9352;50.888;4.466;2023-10-19T00:51:12;16.00;99.90
18446;DHT22;9352;50.888;4.466;2023-10-19T00:53:53;16.00;99.90
18446;DHT22;9352;50.888;4.466;2023-10-19T00:56:21;16.10;99.90
18446;DHT22;9352;50.888;4.466;2023-10-19T00:58:52;16.10;99.90
18446;DHT22;9352;50.888;4.466;2023-10-19T01:01:29;16.10;99.90
18446;DHT22;9352;50.888;4.466;2023-10-19T01:03:59;16.00;99.90
18446;DHT22;9352;50.888;4.466;2023-10-19T01:06:26;16.10;99.90
18446;DHT22;9352;50.888;4.466;2023-10-19T01:08:57;16.00;99.90
18446;DHT22;9352;50.888;4.466;2023-10-19T01:11:24;16.00;99.90
18446;DHT22;9352;50.888;4.466;2023-10-19T01:13:54;16.00;99.90
18446;DHT22;9352;50.888;4.466;2023-10-19T01:16:21;16.00;99.90
18446;DHT22;9352;50.888;4.466;2023-10-19T01:18:49;16.00;99.90
18446;DHT22;9352;50.888;4.466;2023-10-19T01:21:22;16.00;99.90
18446;DHT22;9352;50.888;4.466;2023-10-19T01:23:54;16.00;99.90
18446;DHT22;9352;50.888;4.466;2023-10-19T01:26:21;16.00;99.90
18446;DHT22;9352;50.888;4.466;2023-10-19T01:28:52;16.00;99.90
18446;DHT22;9352;50.888;4.466;2023-10-19T01:31:23;16.00;99.90
18446;DHT22;9352;50.888;4.466;2023-10-19T01:33:57;16.00;99.90
18446;DHT22;9352;50.888;4.466;2023-10-19T01:36:27;16.00;99.90
18446;DHT22;9352;50.888;4.466;2023-10-19T01:38:55;16.00;99.90
18446;DHT22;9352;50.888;4.466;2023-10-19T01:41:28;16.00;99.90
18446;DHT22;9352;50.888;4.466;2023-10-19T01:43:56;16.00;99.90
18446;DHT22;9352;50.888;4.466;2023-10-19T01:46:29;16.00;99.90
18446;DHT22;9352;50.888;4.466;2023-10-19T01:48:59;16.00;99.90
18446;DHT22;9352;50.888;4.466;2023-10-19T01:51:30;16.00;99.90
18446;DHT22;9352;50.888;4.466;2023-10-19T01:54:00;16.00;99.90
18446;DHT22;9352;50.888;4.466;2023-10-19T01:56:27;16.00;99.90
18446;DHT22;9352;50.888;4.466;2023-10-19T01:58:53;16.00;99.90
18446;DHT22;9352;50.888;4.466;2023-10-19T02:01:20;15.90;99.90
18446;DHT22;9352;50.888;4.466;2023-10-19T02:03:55;15.90;99.90
18446;DHT22;9352;50.888;4.466;2023-10-19T02:06:24;15.90;99.90
18446;DHT22;9352;50.888;4.466;2023-10-19T02:08:55;15.90;99.90
18446;DHT22;9352;50.888;4.466;2023-10-19T02:11:28;15.90;99.90
18446;DHT22;9352;50.888;4.466;2023-10-19T02:13:56;15.90;99.90
18446;DHT22;9352;50.888;4.466;2023-10-19T02:16:26;15.90;99.90
18446;DHT22;9352;50.888;4.466;2023-10-19T02:18:55;15.80;99.90
18446;DHT22;9352;50.888;4.466;2023-10-19T02:21:21;15.80;99.90
18446;DHT22;9352;50.888;4.466;2023-10-19T02:23:53;15.80;99.90
18446;DHT22;9352;50.888;4.466;2023-10-19T02:26:19;15.80;99.90
18446;DHT22;9352;50.888;4.466;2023-10-19T02:28:49;15.70;99.90
18446;DHT22;9352;50.888;4.466;2023-10-19T02:31:17;15.70;99.90
18446;DHT22;9352;50.888;4.466;2023-10-19T02:33:47;15.70;99.90
18446;DHT22;9352;50.888;4.466;2023-10-19T02:36:17;15.70;99.90
18446;DHT22;9352;50.888;4.466;2023-10-19T02:38:45;15.60;99.90
18446;DHT22;9352;50.888;4.466;2023-10-19T02:41:14;15.60;99.90
18446;DHT22;9352;50.888;4.466;2023-10-19T02:43:43;15.60;99.90
18446;DHT22;9352;50.888;4.466;2023-10-19T02:46:14;15.60;99.90
18446;DHT22;9352;50.888;4.466;2023-10-19T02:48:43;15.60;99.90
18446;DHT22;9352;50.888;4.466;2023-10-19T02:51:11;15.50;99.90
18446;DHT22;9352;50.888;4.466;2023-10-19T02:53:38;15.50;99.90
18446;DHT22;9352;50.888;4.466;2023-10-19T02:56:12;15.40;99.90
18446;DHT22;9352;50.888;4.466;2023-10-19T02:58:40;15.40;99.90
18446;DHT22;9352;50.888;4.466;2023-10-19T03:01:17;15.40;99.90
18446;DHT22;9352;50.888;4.466;2023-10-19T03:03:48;15.30;99.90
18446;DHT22;9352;50.888;4.466;2023-10-19T03:06:18;15.30;99.90
18446;DHT22;9352;50.888;4.466;2023-10-19T03:08:45;15.30;99.90
18446;DHT22;9352;50.888;4.466;2023-10-19T03:11:13;15.30;99.90
18446;DHT22;9352;50.888;4.466;2023-10-19T03:13:39;15.30;99.90
18446;DHT22;9352;50.888;4.466;2023-10-19T03:16:09;15.30;99.90
18446;DHT22;9352;50.888;4.466;2023-10-19T03:18:36;15.40;99.90
18446;DHT22;9352;50.888;4.466;2023-10-19T03:21:04;15.30;99.90
18446;DHT22;9352;50.888;4.466;2023-10-19T03:23:31;15.40;99.90
18446;DHT22;9352;50.888;4.466;2023-10-19T03:26:00;15.40;99.90
18446;DHT22;9352;50.888;4.466;2023-10-19T03:28:48;15.40;99.90
18446;DHT22;9352;50.888;4.466;2023-10-19T03:31:20;15.50;99.90
18446;DHT22;9352;50.888;4.466;2023-10-19T03:33:50;15.50;99.90
18446;DHT22;9352;50.888;4.466;2023-10-19T03:36:20;15.50;99.90
18446;DHT22;9352;50.888;4.466;2023-10-19T03:38:48;15.50;99.90
18446;DHT22;9352;50.888;4.466;2023-10-19T03:41:15;15.50;99.90
18446;DHT22;9352;50.888;4.466;2023-10-19T03:43:47;15.50;99.90
18446;DHT22;9352;50.888;4.466;2023-10-19T03:46:14;15.50;99.90
18446;DHT22;9352;50.888;4.466;2023-10-19T03:48:51;15.60;99.90
18446;DHT22;9352;50.888;4.466;2023-10-19T03:51:18;15.50;99.90
18446;DHT22;9352;50.888;4.466;2023-10-19T03:53:50;15.60;99.90
18446;DHT22;9352;50.888;4.466;2023-10-19T03:56:21;15.60;99.90
18446;DHT22;9352;50.888;4.466;2023-10-19T03:58:49;15.60;99.90
18446;DHT22;9352;50.888;4.466;2023-10-19T04:01:16;15.60;99.90
18446;DHT22;9352;50.888;4.466;2023-10-19T04:03:45;15.60;99.90
18446;DHT22;9352;50.888;4.466;2023-10-19T04:06:14;15.60;99.90
18446;DHT22;9352;50.888;4.466;2023-10-19T04:08:41;15.60;99.90
18446;DHT22;9352;50.888;4.466;2023-10-19T04:11:11;15.60;99.90
18446;DHT22;9352;50.888;4.466;2023-10-19T04:13:48;15.60;99.90
18446;DHT22;9352;50.888;4.466;2023-10-19T04:16:19;15.60;99.90
18446;DHT22;9352;50.888;4.466;2023-10-19T04:18:46;15.60;99.90
18446;DHT22;9352;50.888;4.466;2023-10-19T04:21:15;15.60;99.90
18446;DHT22;9352;50.888;4.466;2023-10-19T04:23:42;15.60;99.90
18446;DHT22;9352;50.888;4.466;2023-10-19T04:26:09;15.60;99.90
18446;DHT22;9352;50.888;4.466;2023-10-19T04:28:39;15.60;99.90
18446;DHT22;9352;50.888;4.466;2023-10-19T04:31:11;15.70;99.90
18446;DHT22;9352;50.888;4.466;2023-10-19T04:33:40;15.70;99.90
18446;DHT22;9352;50.888;4.466;2023-10-19T04:36:12;15.70;99.90
18446;DHT22;9352;50.888;4.466;2023-10-19T04:38:41;15.70;99.90
18446;DHT22;9352;50.888;4.466;2023-10-19T04:41:10;15.70;99.90
18446;DHT22;9352;50.888;4.466;2023-10-19T04:43:38;15.70;99.90
18446;DHT22;9352;50.888;4.466;2023-10-19T04:46:07;15.70;99.90
18446;DHT22;9352;50.888;4.466;2023-10-19T04:48:37;15.70;99.90
18446;DHT22;9352;50.888;4.466;2023-10-19T04:51:05;15.70;99.90
18446;DHT22;9352;50.888;4.466;2023-10-19T04:53:32;15.70;99.90
18446;DHT22;9352;50.888;4.466;2023-10-19T04:56:01;15.70;99.90
18446;DHT22;9352;50.888;4.466;2023-10-19T04:58:29;15.70;99.90
18446;DHT22;9352;50.888;4.466;2023-10-19T05:00:56;15.70;99.90
18446;DHT22;9352;50.888;4.466;2023-10-19T05:03:25;15.70;99.90
18446;DHT22;9352;50.888;4.466;2023-10-19T05:05:52;15.70;99.90
18446;DHT22;9352;50.888;4.466;2023-10-19T05:08:18;15.70;99.90
18446;DHT22;9352;50.888;4.466;2023-10-19T05:10:48;15.70;99.90
18446;DHT22;9352;50.888;4.466;2023-10-19T05:13:17;15.70;99.90
18446;DHT22;9352;50.888;4.466;2023-10-19T05:15:44;15.70;99.90
18446;DHT22;9352;50.888;4.466;2023-10-19T05:18:12;15.70;99.90
18446;DHT22;9352;50.888;4.466;2023-10-19T05:20:39;15.70;99.90
18446;DHT22;9352;50.888;4.466;2023-10-19T05:23:07;15.70;99.90
18446;DHT22;9352;50.888;4.466;2023-10-19T05:25:34;15.70;99.90
18446;DHT22;9352;50.888;4.466;2023-10-19T05:28:03;15.70;99.90
18446;DHT22;9352;50.888;4.466;2023-10-19T05:30:32;15.70;99.90
18446;DHT22;9352;50.888;4.466;2023-10-19T05:32:59;15.70;99.90
18446;DHT22;9352;50.888;4.466;2023-10-19T05:35:28;15.70;99.90
18446;DHT22;9352;50.888;4.466;2023-10-19T05:37:55;15.70;99.90
18446;DHT22;9352;50.888;4.466;2023-10-19T05:40:23;15.70;99.90
18446;DHT22;9352;50.888;4.466;2023-10-19T05:42:55;15.70;99.90
18446;DHT22;9352;50.888;4.466;2023-10-19T05:45:22;15.80;99.90
18446;DHT22;9352;50.888;4.466;2023-10-19T05:47:50;15.70;99.90
18446;DHT22;9352;50.888;4.466;2023-10-19T05:50:17;15.80;99.90
18446;DHT22;9352;50.888;4.466;2023-10-19T05:52:44;15.80;99.90
18446;DHT22;9352;50.888;4.466;2023-10-19T05:55:12;15.80;99.90
18446;DHT22;9352;50.888;4.466;2023-10-19T05:57:40;15.80;99.90
18446;DHT22;9352;50.888;4.466;2023-10-19T06:00:08;15.70;99.90
18446;DHT22;9352;50.888;4.466;2023-10-19T06:02:40;15.70;99.90
18446;DHT22;9352;50.888;4.466;2023-10-19T06:05:10;15.80;99.90
18446;DHT22;9352;50.888;4.466;2023-10-19T06:07:38;15.80;99.90
18446;DHT22;9352;50.888;4.466;2023-10-19T06:10:05;15.80;99.90
18446;DHT22;9352;50.888;4.466;2023-10-19T06:12:33;15.80;99.90
18446;DHT22;9352;50.888;4.466;2023-10-19T06:15:03;15.80;99.90
18446;DHT22;9352;50.888;4.466;2023-10-19T06:17:30;15.80;99.90
18446;DHT22;9352;50.888;4.466;2023-10-19T06:19:57;15.80;99.90
18446;DHT22;9352;50.888;4.466;2023-10-19T06:22:25;15.80;99.90
18446;DHT22;9352;50.888;4.466;2023-10-19T06:24:54;15.70;99.90
18446;DHT22;9352;50.888;4.466;2023-10-19T06:27:21;15.70;99.90
18446;DHT22;9352;50.888;4.466;2023-10-19T06:29:48;15.70;99.90
18446;DHT22;9352;50.888;4.466;2023-10-19T06:32:16;15.70;99.90
18446;DHT22;9352;50.888;4.466;2023-10-19T06:34:42;15.70;99.90
18446;DHT22;9352;50.888;4.466;2023-10-19T06:37:09;15.70;99.90
18446;DHT22;9352;50.888;4.466;2023-10-19T06:39:38;15.70;99.90
18446;DHT22;9352;50.888;4.466;2023-10-19T06:42:07;15.70;99.90
18446;DHT22;9352;50.888;4.466;2023-10-19T06:44:40;15.60;99.90
18446;DHT22;9352;50.888;4.466;2023-10-19T06:47:07;15.60;99.90
18446;DHT22;9352;50.888;4.466;2023-10-19T06:49:34;15.50;99.90
18446;DHT22;9352;50.888;4.466;2023-10-19T06:52:01;15.50;99.90
18446;DHT22;9352;50.888;4.466;2023-10-19T06:54:30;15.40;99.90
18446;DHT22;9352;50.888;4.466;2023-10-19T06:56:59;15.40;99.90
18446;DHT22;9352;50.888;4.466;2023-10-19T06:59:28;15.40;99.90
18446;DHT22;9352;50.888;4.466;2023-10-19T07:01:58;15.40;99.90
18446;DHT22;9352;50.888;4.466;2023-10-19T07:04:27;15.40;99.90
18446;DHT22;9352;50.888;4.466;2023-10-19T07:06:55;15.40;99.90
18446;DHT22;9352;50.888;4.466;2023-10-19T07:09:22;15.40;99.90
18446;DHT22;9352;50.888;4.466;2023-10-19T07:11:49;15.50;99.90
18446;DHT22;9352;50.888;4.466;2023-10-19T07:14:20;15.50;99.90
18446;DHT22;9352;50.888;4.466;2023-10-19T07:16:48;15.50;99.90
18446;DHT22;9352;50.888;4.466;2023-10-19T07:19:16;15.50;99.90
18446;DHT22;9352;50.888;4.466;2023-10-19T07:21:43;15.50;99.90
18446;DHT22;9352;50.888;4.466;2023-10-19T07:24:14;15.60;99.90
18446;DHT22;9352;50.888;4.466;2023-10-19T07:26:44;15.50;99.90
18446;DHT22;9352;50.888;4.466;2023-10-19T07:29:20;15.60;99.90
18446;DHT22;9352;50.888;4.466;2023-10-19T07:31:47;15.50;99.90
18446;DHT22;9352;50.888;4.466;2023-10-19T07:34:14;15.60;99.90
18446;DHT22;9352;50.888;4.466;2023-10-19T07:36:41;15.60;99.90
18446;DHT22;9352;50.888;4.466;2023-10-19T07:39:09;15.60;99.90
18446;DHT22;9352;50.888;4.466;2023-10-19T07:41:44;15.60;99.90
18446;DHT22;9352;50.888;4.466;2023-10-19T07:44:11;15.70;99.90
18446;DHT22;9352;50.888;4.466;2023-10-19T07:46:40;15.80;99.90
18446;DHT22;9352;50.888;4.466;2023-10-19T07:49:08;15.80;99.90
18446;DHT22;9352;50.888;4.466;2023-10-19T07:51:34;15.80;99.90
18446;DHT22;9352;50.888;4.466;2023-10-19T07:54:01;15.90;99.90
18446;DHT22;9352;50.888;4.466;2023-10-19T07:56:29;15.90;99.90
18446;DHT22;9352;50.888;4.466;2023-10-19T07:58:56;16.00;99.90
18446;DHT22;9352;50.888;4.466;2023-10-19T08:01:23;16.10;99.90
18446;DHT22;9352;50.888;4.466;2023-10-19T08:03:51;16.10;99.90
18446;DHT22;9352;50.888;4.466;2023-10-19T08:06:18;16.20;99.90
18446;DHT22;9352;50.888;4.466;2023-10-19T08:08:45;16.30;99.90
18446;DHT22;9352;50.888;4.466;2023-10-19T08:11:12;16.40;99.90
18446;DHT22;9352;50.888;4.466;2023-10-19T08:13:39;16.40;99.90
18446;DHT22;9352;50.888;4.466;2023-10-19T08:16:06;16.50;99.90
18446;DHT22;9352;50.888;4.466;2023-10-19T08:18:33;16.50;99.90
18446;DHT22;9352;50.888;4.466;2023-10-19T08:21:02;16.50;99.90
18446;DHT22;9352;50.888;4.466;2023-10-19T08:23:29;16.50;99.90
18446;DHT22;9352;50.888;4.466;2023-10-19T08:26:03;16.50;99.90
18446;DHT22;9352;50.888;4.466;2023-10-19T08:28:31;16.60;99.90
18446;DHT22;9352;50.888;4.466;2023-10-19T08:30:58;16.60;99.90
18446;DHT22;9352;50.888;4.466;2023-10-19T08:33:27;16.60;99.90
18446;DHT22;9352;50.888;4.466;2023-10-19T08:35:55;16.60;99.90
18446;DHT22;9352;50.888;4.466;2023-10-19T08:38:24;16.70;99.90
18446;DHT22;9352;50.888;4.466;2023-10-19T08:40:51;16.70;99.90
18446;DHT22;9352;50.888;4.466;2023-10-19T08:43:19;16.70;99.90
18446;DHT22;9352;50.888;4.466;2023-10-19T08:45:46;16.70;99.90
18446;DHT22;9352;50.888;4.466;2023-10-19T08:48:14;16.70;99.90
18446;DHT22;9352;50.888;4.466;2023-10-19T08:50:41;16.70;99.90
18446;DHT22;9352;50.888;4.466;2023-10-19T08:53:09;16.70;99.90
18446;DHT22;9352;50.888;4.466;2023-10-19T08:55:40;16.80;99.90
18446;DHT22;9352;50.888;4.466;2023-10-19T08:58:09;16.80;99.90
18446;DHT22;9352;50.888;4.466;2023-10-19T09:00:46;16.90;99.90
18446;DHT22;9352;50.888;4.466;2023-10-19T09:03:14;16.90;99.90
18446;DHT22;9352;50.888;4.466;2023-10-19T09:05:43;17.00;99.90
18446;DHT22;9352;50.888;4.466;2023-10-19T09:08:14;17.00;99.90
18446;DHT22;9352;50.888;4.466;2023-10-19T09:10:44;17.10;99.90
18446;DHT22;9352;50.888;4.466;2023-10-19T09:13:12;17.20;99.90
18446;DHT22;9352;50.888;4.466;2023-10-19T09:15:41;17.30;99.90
18446;DHT22;9352;50.888;4.466;2023-10-19T09:18:15;17.40;99.90
18446;DHT22;9352;50.888;4.466;2023-10-19T09:20:43;17.40;99.90
18446;DHT22;9352;50.888;4.466;2023-10-19T09:23:19;17.40;99.90
18446;DHT22;9352;50.888;4.466;2023-10-19T09:25:48;17.50;99.90
18446;DHT22;9352;50.888;4.466;2023-10-19T09:28:16;17.50;99.90
18446;DHT22;9352;50.888;4.466;2023-10-19T09:30:43;17.50;99.90
18446;DHT22;9352;50.888;4.466;2023-10-19T09:33:11;17.50;99.90
18446;DHT22;9352;50.888;4.466;2023-10-19T09:35:40;17.50;99.90
18446;DHT22;9352;50.888;4.466;2023-10-19T09:38:09;17.60;99.90
18446;DHT22;9352;50.888;4.466;2023-10-19T09:40:36;17.70;99.90
18446;DHT22;9352;50.888;4.466;2023-10-19T09:43:14;17.80;99.90
18446;DHT22;9352;50.888;4.466;2023-10-19T09:45:42;17.90;99.90
18446;DHT22;9352;50.888;4.466;2023-10-19T09:48:16;18.00;99.90
18446;DHT22;9352;50.888;4.466;2023-10-19T09:50:45;18.00;99.90
18446;DHT22;9352;50.888;4.466;2023-10-19T09:53:21;18.10;99.90
18446;DHT22;9352;50.888;4.466;2023-10-19T09:55:50;18.10;99.90
18446;DHT22;9352;50.888;4.466;2023-10-19T09:58:20;18.00;99.90
18446;DHT22;9352;50.888;4.466;2023-10-19T10:00:50;17.90;99.90
18446;DHT22;9352;50.888;4.466;2023-10-19T10:03:42;17.90;99.90
18446;DHT22;9352;50.888;4.466;2023-10-19T10:06:09;17.90;99.90
18446;DHT22;9352;50.888;4.466;2023-10-19T10:08:38;17.90;99.90
18446;DHT22;9352;50.888;4.466;2023-10-19T10:11:20;17.90;99.90
18446;DHT22;9352;50.888;4.466;2023-10-19T10:13:49;18.10;99.90
18446;DHT22;9352;50.888;4.466;2023-10-19T10:16:19;18.20;99.90
18446;DHT22;9352;50.888;4.466;2023-10-19T10:18:47;18.30;99.90
18446;DHT22;9352;50.888;4.466;2023-10-19T10:21:17;18.50;99.90
18446;DHT22;9352;50.888;4.466;2023-10-19T10:23:48;18.60;99.90
18446;DHT22;9352;50.888;4.466;2023-10-19T10:26:16;18.70;99.90
18446;DHT22;9352;50.888;4.466;2023-10-19T10:28:47;18.70;99.90
18446;DHT22;9352;50.888;4.466;2023-10-19T10:31:19;18.60;99.90
18446;DHT22;9352;50.888;4.466;2023-10-19T10:33:48;18.70;99.90
18446;DHT22;9352;50.888;4.466;2023-10-19T10:36:17;18.70;99.90
18446;DHT22;9352;50.888;4.466;2023-10-19T10:38:46;18.80;99.90
18446;DHT22;9352;50.888;4.466;2023-10-19T10:41:19;18.80;99.90
18446;DHT22;9352;50.888;4.466;2023-10-19T10:43:55;18.90;99.90
18446;DHT22;9352;50.888;4.466;2023-10-19T10:46:23;18.80;99.90
18446;DHT22;9352;50.888;4.466;2023-10-19T10:48:51;18.80;99.90
18446;DHT22;9352;50.888;4.466;2023-10-19T10:51:19;18.80;99.90
18446;DHT22;9352;50.888;4.466;2023-10-19T10:53:48;18.80;99.90
18446;DHT22;9352;50.888;4.466;2023-10-19T10:56:15;18.80;99.90
18446;DHT22;9352;50.888;4.466;2023-10-19T10:58:42;18.70;99.90
18446;DHT22;9352;50.888;4.466;2023-10-19T11:01:11;18.70;99.90
18446;DHT22;9352;50.888;4.466;2023-10-19T11:03:39;18.70;99.90
18446;DHT22;9352;50.888;4.466;2023-10-19T11:06:06;18.60;99.90
18446;DHT22;9352;50.888;4.466;2023-10-19T11:08:34;18.50;99.90
18446;DHT22;9352;50.888;4.466;2023-10-19T11:11:03;18.40;99.90
18446;DHT22;9352;50.888;4.466;2023-10-19T11:13:31;18.30;99.90
18446;DHT22;9352;50.888;4.466;2023-10-19T11:16:02;18.20;99.90
18446;DHT22;9352;50.888;4.466;2023-10-19T11:18:33;18.20;99.90
18446;DHT22;9352;50.888;4.466;2023-10-19T11:21:05;18.20;99.90
18446;DHT22;9352;50.888;4.466;2023-10-19T11:23:39;18.20;99.90
18446;DHT22;9352;50.888;4.466;2023-10-19T11:26:06;18.30;99.90
18446;DHT22;9352;50.888;4.466;2023-10-19T11:28:34;18.40;99.90
18446;DHT22;9352;50.888;4.466;2023-10-19T11:31:11;18.40;99.90
18446;DHT22;9352;50.888;4.466;2023-10-19T11:33:41;18.40;99.90
18446;DHT22;9352;50.888;4.466;2023-10-19T11:36:08;18.40;99.90
18446;DHT22;9352;50.888;4.466;2023-10-19T11:38:39;18.40;99.90
18446;DHT22;9352;50.888;4.466;2023-10-19T11:41:06;18.40;99.90
18446;DHT22;9352;50.888;4.466;2023-10-19T11:43:33;18.40;99.90
18446;DHT22;9352;50.888;4.466;2023-10-19T11:46:01;18.30;99.90
18446;DHT22;9352;50.888;4.466;2023-10-19T11:48:28;18.30;99.90
18446;DHT22;9352;50.888;4.466;2023-10-19T11:50:56;18.20;99.90
18446;DHT22;9352;50.888;4.466;2023-10-19T11:53:23;18.20;99.90
18446;DHT22;9352;50.888;4.466;2023-10-19T11:55:50;18.30;99.90
18446;DHT22;9352;50.888;4.466;2023-10-19T11:58:17;18.40;99.90
18446;DHT22;9352;50.888;4.466;2023-10-19T12:00:44;18.40;99.90
18446;DHT22;9352;50.888;4.466;2023-10-19T12:03:12;18.40;99.90
18446;DHT22;9352;50.888;4.466;2023-10-19T12:05:39;18.40;99.90
18446;DHT22;9352;50.888;4.466;2023-10-19T12:08:09;18.50;99.90
18446;DHT22;9352;50.888;4.466;2023-10-19T12:10:36;18.40;99.90
18446;DHT22;9352;50.888;4.466;2023-10-19T12:13:04;18.40;99.90
18446;DHT22;9352;50.888;4.466;2023-10-19T12:15:33;18.30;99.90
18446;DHT22;9352;50.888;4.466;2023-10-19T12:18:00;18.30;99.90
18446;DHT22;9352;50.888;4.466;2023-10-19T12:20:27;18.20;99.90
18446;DHT22;9352;50.888;4.466;2023-10-19T12:22:56;18.20;99.90
18446;DHT22;9352;50.888;4.466;2023-10-19T12:25:25;18.20;99.90
18446;DHT22;9352;50.888;4.466;2023-10-19T12:27:57;18.10;99.90
18446;DHT22;9352;50.888;4.466;2023-10-19T12:30:25;18.10;99.90
18446;DHT22;9352;50.888;4.466;2023-10-19T12:32:59;18.00;99.90
18446;DHT22;9352;50.888;4.466;2023-10-19T12:35:26;18.00;99.90
18446;DHT22;9352;50.888;4.466;2023-10-19T12:38:07;18.00;99.90
18446;DHT22;9352;50.888;4.466;2023-10-19T12:40:42;18.00;99.90
18446;DHT22;9352;50.888;4.466;2023-10-19T12:43:10;18.10;99.90
18446;DHT22;9352;50.888;4.466;2023-10-19T12:45:38;18.40;99.90
18446;DHT22;9352;50.888;4.466;2023-10-19T12:48:06;18.80;99.90
18446;DHT22;9352;50.888;4.466;2023-10-19T12:50:34;19.20;99.90
18446;DHT22;9352;50.888;4.466;2023-10-19T12:53:02;19.40;99.90
18446;DHT22;9352;50.888;4.466;2023-10-19T12:55:29;19.60;99.90
18446;DHT22;9352;50.888;4.466;2023-10-19T12:57:58;19.90;99.90
18446;DHT22;9352;50.888;4.466;2023-10-19T13:00:32;20.20;99.90
18446;DHT22;9352;50.888;4.466;2023-10-19T13:03:07;20.50;99.90
18446;DHT22;9352;50.888;4.466;2023-10-19T13:05:34;20.40;99.90
18446;DHT22;9352;50.888;4.466;2023-10-19T13:08:04;20.30;99.90
18446;DHT22;9352;50.888;4.466;2023-10-19T13:10:33;20.40;99.90
18446;DHT22;9352;50.888;4.466;2023-10-19T13:13:04;20.50;99.90
18446;DHT22;9352;50.888;4.466;2023-10-19T13:15:32;20.50;99.90
18446;DHT22;9352;50.888;4.466;2023-10-19T13:18:00;20.30;99.90
18446;DHT22;9352;50.888;4.466;2023-10-19T13:20:27;20.10;99.90
18446;DHT22;9352;50.888;4.466;2023-10-19T13:22:59;19.90;99.90
18446;DHT22;9352;50.888;4.466;2023-10-19T13:25:26;19.80;99.90
18446;DHT22;9352;50.888;4.466;2023-10-19T13:28:09;19.70;99.90
18446;DHT22;9352;50.888;4.466;2023-10-19T13:30:37;19.50;99.90
18446;DHT22;9352;50.888;4.466;2023-10-19T13:33:05;19.40;99.90
18446;DHT22;9352;50.888;4.466;2023-10-19T13:35:32;19.50;99.90
18446;DHT22;9352;50.888;4.466;2023-10-19T13:38:00;19.50;99.90
18446;DHT22;9352;50.888;4.466;2023-10-19T13:40:27;19.60;99.90
18446;DHT22;9352;50.888;4.466;2023-10-19T13:42:56;19.70;99.90
18446;DHT22;9352;50.888;4.466;2023-10-19T13:45:25;19.80;99.90
18446;DHT22;9352;50.888;4.466;2023-10-19T13:47:52;19.80;99.90
18446;DHT22;9352;50.888;4.466;2023-10-19T13:50:22;19.70;99.90
18446;DHT22;9352;50.888;4.466;2023-10-19T13:52:50;19.70;99.90
18446;DHT22;9352;50.888;4.466;2023-10-19T13:55:17;19.60;99.90
18446;DHT22;9352;50.888;4.466;2023-10-19T13:57:46;19.60;99.90
18446;DHT22;9352;50.888;4.466;2023-10-19T14:00:14;19.50;99.90
18446;DHT22;9352;50.888;4.466;2023-10-19T14:02:46;19.40;99.90
18446;DHT22;9352;50.888;4.466;2023-10-19T14:05:14;19.30;99.90
18446;DHT22;9352;50.888;4.466;2023-10-19T14:07:41;19.20;99.90
18446;DHT22;9352;50.888;4.466;2023-10-19T14:10:09;19.20;99.90
18446;DHT22;9352;50.888;4.466;2023-10-19T14:12:38;19.10;99.90
18446;DHT22;9352;50.888;4.466;2023-10-19T14:15:12;19.10;99.90
18446;DHT22;9352;50.888;4.466;2023-10-19T14:17:40;19.00;99.90
18446;DHT22;9352;50.888;4.466;2023-10-19T14:20:09;19.00;99.90
18446;DHT22;9352;50.888;4.466;2023-10-19T14:22:43;19.00;99.90
18446;DHT22;9352;50.888;4.466;2023-10-19T14:25:12;18.90;99.90
18446;DHT22;9352;50.888;4.466;2023-10-19T14:27:40;18.90;99.90
18446;DHT22;9352;50.888;4.466;2023-10-19T14:30:08;18.90;99.90
18446;DHT22;9352;50.888;4.466;2023-10-19T14:32:37;18.90;99.90
18446;DHT22;9352;50.888;4.466;2023-10-19T14:35:05;18.90;99.90
18446;DHT22;9352;50.888;4.466;2023-10-19T14:37:38;18.80;99.90
18446;DHT22;9352;50.888;4.466;2023-10-19T14:40:07;18.80;99.90
18446;DHT22;9352;50.888;4.466;2023-10-19T14:42:36;18.80;99.90
18446;DHT22;9352;50.888;4.466;2023-10-19T14:45:05;18.80;99.90
18446;DHT22;9352;50.888;4.466;2023-10-19T14:47:35;18.80;99.90
18446;DHT22;9352;50.888;4.466;2023-10-19T14:50:03;18.80;99.90
18446;DHT22;9352;50.888;4.466;2023-10-19T14:52:30;18.80;99.90
18446;DHT22;9352;50.888;4.466;2023-10-19T14:54:58;18.80;99.90
18446;DHT22;9352;50.888;4.466;2023-10-19T14:57:26;18.70;99.90
18446;DHT22;9352;50.888;4.466;2023-10-19T14:59:53;18.70;99.90
18446;DHT22;9352;50.888;4.466;2023-10-19T15:02:20;18.70;99.90
18446;DHT22;9352;50.888;4.466;2023-10-19T15:04:49;18.70;99.90
18446;DHT22;9352;50.888;4.466;2023-10-19T15:07:16;18.70;99.90
18446;DHT22;9352;50.888;4.466;2023-10-19T15:09:43;18.70;99.90
18446;DHT22;9352;50.888;4.466;2023-10-19T15:12:13;19.10;99.90
18446;DHT22;9352;50.888;4.466;2023-10-19T15:14:41;21.40;99.90
18446;DHT22;9352;50.888;4.466;2023-10-19T15:17:08;21.80;99.90
18446;DHT22;9352;50.888;4.466;2023-10-19T15:19:36;21.00;99.90
18446;DHT22;9352;50.888;4.466;2023-10-19T15:22:03;20.50;99.90
18446;DHT22;9352;50.888;4.466;2023-10-19T15:24:30;20.20;99.90
18446;DHT22;9352;50.888;4.466;2023-10-19T15:26:57;19.90;99.90
18446;DHT22;9352;50.888;4.466;2023-10-19T15:29:26;19.70;99.90
18446;DHT22;9352;50.888;4.466;2023-10-19T15:31:54;19.60;99.90
18446;DHT22;9352;50.888;4.466;2023-10-19T15:34:22;19.40;99.90
18446;DHT22;9352;50.888;4.466;2023-10-19T15:36:48;19.30;99.90
18446;DHT22;9352;50.888;4.466;2023-10-19T15:39:15;19.20;99.90
18446;DHT22;9352;50.888;4.466;2023-10-19T15:41:43;19.10;99.90
18446;DHT22;9352;50.888;4.466;2023-10-19T15:44:11;19.00;99.90
18446;DHT22;9352;50.888;4.466;2023-10-19T15:46:39;18.90;99.90
18446;DHT22;9352;50.888;4.466;2023-10-19T15:49:10;18.80;99.90
18446;DHT22;9352;50.888;4.466;2023-10-19T15:51:38;18.80;99.90
18446;DHT22;9352;50.888;4.466;2023-10-19T15:54:06;18.70;99.90
18446;DHT22;9352;50.888;4.466;2023-10-19T15:56:33;18.70;99.90